Oshawa Airport
CYOO : now visible

Airfield :











YOU CAN JOIN US ON...

 
LOGIN :

Register | Disclaimer

   EN    FR    IT 

 









Legend :    VFR   Marginal VFR   IFR   Intensive IFR   Very Intensive IFR
Visi :
Ceiling :
>= 8 km
>= 3000ft
5 to 8 km
1000 to 3000 ft
1500m to 5 km
500 to 1000 ft
800 to 1500m
200 to 500 ft
< 800m
< 200 ft
Symbols :   Thunderstorms  Fog  Heavy snow  Heavy precipitations  Wind > 20 kt






- Airport Elevation : 459 ft
- IATA code : YOO


CYOO - Oshawa

CURRENT METAR :
  • 081900Z AUTO 20006KT 160V220 9SM FEW037 BKN050 11/05 A2963 RMK SLP037

EXPIRED METARs :
  • 081800Z AUTO 18006KT 9SM FEW029 SCT034 BKN055 10/05 A2963 RMK SLP039
  • 081718Z AUTO 18008KT 140V220 9SM FEW022 SCT026 OVC044 09/05 A2963 RMK SLP039
  • 081700Z AUTO 18009KT 150V230 9SM BKN020 OVC025 09/05 A2964 RMK SLP040
  • 081600Z AUTO VRB07KT 9SM OVC016 08/04 A2964 RMK SLP040

TAF TAF CYOO
Valid from the 08 at 14:00 until the 09 at 02:00 UTC


081341Z 0814/0902 VRB03KT P6SM OVC020
TEMPO 0814/0817 BKN025
FM081700 20008KT P6SM FEW008 OVC020
TEMPO 0817/0819 SCT020
FM081900 19008KT P6SM FEW008 SCT015
TEMPO 0819/0822 BKN015
FM082200 32008KT P6SM SCT020 RMK FCST BASED ON AUTO OBS. NXT FCST BY 082000Z



MET'MAP, your aeronautical weather chart ! - Copyright ORBIFLY December 2007 - Disclaimer

ORBIFLY MET'MAP TEAM :

Programming & Development : Alexandra Zaïnal
Concept & original design : Baudouin d'Aumeries
Assistance for programming : Marc-Olivier Méhu
Technical & hardware support : Manuel Goepfert

Contact : metmap@orbifly.com




SOURCES & CREDITS :

   NOAA       Earth
Advisory